Beggs, Oklahoma
Current Conditions -  °F | °C
As of 12:35 PM on Thursday 23 Oct 2014 (Local Time) from KOKM Reporting Station
Overcast Overcast  
Wind Chill: 57°   Ceiling: 5000
Heat Index: 57°   Visibility: 10mi
Dew Point: 55°   Wind: 13mph
Humidity: 94%   Direction: 170°S
Pressure: 30.17"   Gusts: NA
Location:  35.74°N, 96.07°W
Report Text: KOKM 231735Z AUTO 17011KT 10SM OVC050 14/13 A3017 RMK AO2 P0001 T01400130
Loading
Personal Weather Stations






























Interactive Weather Map
Tropical Storm Tracking
New forecast layout! Learn more

10-Day Weather Forecast

Advertisements
Track Severe Weather on mobile